Time;durP1;ratioP1;P1;durP2;ratioP2;P2;SDS_P1;SDS_P2;PMS_P1;PMS_P2;Temp;Humidity;BMP_temperature;BMP_pressure;BME280_temperature;BME280_humidity;BME280_pressure;Samples;Min_cycle;Max_cycle;Signal;HPM_P1;HPM_P2
2023/06/08 00:01:32;;;;;;;5.82;5.32;;;25.00;53.90;25.70;100853.00;;;;5007240;28;20199;-61
2023/06/08 00:03:57;;;;;;;5.60;5.10;;;25.00;53.90;25.70;100844.00;;;;5008899;28;20176;-59
2023/06/08 00:06:25;;;;;;;5.60;5.10;;;24.90;53.80;25.70;100847.00;;;;5008731;28;20179;-61
2023/06/08 00:08:51;;;;;;;5.65;5.22;;;24.90;53.70;25.70;100838.00;;;;5009270;28;20257;-60
2023/06/08 00:11:17;;;;;;;5.65;5.15;;;25.00;53.90;25.60;100834.00;;;;5013204;28;20219;-63
2023/06/08 00:13:42;;;;;;;5.93;5.32;;;24.90;53.70;25.60;100831.00;;;;5016910;28;20538;-60
2023/06/08 00:16:08;;;;;;;5.68;5.18;;;24.90;53.80;25.60;100817.00;;;;5012143;28;20196;-60
2023/06/08 00:18:36;;;;;;;6.53;5.60;;;24.90;53.80;25.60;100817.00;;;;5010570;28;20238;-61
2023/06/08 00:21:02;;;;;;;5.65;5.13;;;24.90;53.70;25.60;100824.00;;;;5009939;28;20222;-60
2023/06/08 00:23:28;;;;;;;6.00;5.50;;;24.90;53.70;25.60;100820.00;;;;5009782;28;20233;-60
2023/06/08 00:25:54;;;;;;;5.90;5.40;;;24.90;53.70;25.60;100826.00;;;;5010543;28;20175;-59
2023/06/08 00:28:20;;;;;;;5.75;5.18;;;24.90;53.70;25.60;100823.00;;;;5013412;28;20176;-60
2023/06/08 00:30:46;;;;;;;5.57;5.07;;;24.90;53.80;25.60;100816.00;;;;5011929;28;20286;-60
2023/06/08 00:33:12;;;;;;;6.88;5.50;;;24.90;53.90;25.60;100826.00;;;;5010087;28;20187;-60
2023/06/08 00:35:38;;;;;;;5.97;5.47;;;24.90;54.00;25.60;100816.00;;;;5009448;28;20214;-60
2023/06/08 00:38:03;;;;;;;5.93;5.35;;;24.90;54.00;25.50;100819.00;;;;5009708;28;20179;-60
2023/06/08 00:40:29;;;;;;;6.32;5.72;;;24.80;54.00;25.50;100820.00;;;;5009458;28;20238;-60
2023/06/08 00:42:55;;;;;;;6.40;5.80;;;24.80;54.10;25.50;100823.00;;;;5009562;28;20175;-60
2023/06/08 00:45:21;;;;;;;6.10;5.60;;;24.80;54.00;25.50;100812.00;;;;5009513;28;20176;-60
2023/06/08 00:47:47;;;;;;;7.00;6.38;;;24.80;54.10;25.40;100811.00;;;;5008276;28;20180;-61
2023/06/08 00:50:16;;;;;;;6.43;5.82;;;24.80;54.10;25.40;100809.00;;;;5009430;28;20883;-60
2023/06/08 00:52:41;;;;;;;7.20;6.38;;;24.80;54.10;25.40;100780.00;;;;5009607;28;20206;-59
2023/06/08 00:55:08;;;;;;;6.25;5.70;;;24.80;54.20;25.40;100808.00;;;;5008361;28;20211;-59
2023/06/08 00:57:35;;;;;;;6.22;5.72;;;24.70;54.10;25.40;100811.00;;;;5008064;28;20184;-59
2023/06/08 01:00:04;;;;;;;6.13;5.53;;;24.70;54.10;25.40;100807.00;;;;4975856;28;20164;-60
2023/06/08 01:02:31;;;;;;;6.13;5.63;;;24.70;54.10;25.40;100811.00;;;;5008256;28;20180;-59
2023/06/08 01:04:57;;;;;;;6.32;5.80;;;24.70;54.10;25.40;100804.00;;;;5008031;28;20182;-61
2023/06/08 01:07:40;;;;;;;5.93;5.43;;;24.70;54.10;25.40;100751.00;;;;5009363;28;20179;-60
2023/06/08 01:10:16;;;;;;;6.07;5.47;;;24.70;54.20;25.30;100806.00;;;;5009373;28;20179;-60
2023/06/08 01:12:57;;;;;;;5.80;5.30;;;24.70;54.30;25.30;100810.00;;;;4993635;28;20190;-60
2023/06/08 01:15:51;;;;;;;6.40;5.80;;;24.70;54.10;25.30;100813.00;;;;5011728;28;20278;-60
2023/06/08 01:18:17;;;;;;;5.95;5.35;;;24.70;54.10;25.30;100780.00;;;;4993892;28;20187;-61
2023/06/08 01:21:22;;;;;;;6.00;5.50;;;24.70;54.10;25.30;100808.00;;;;5011674;28;20222;-61
2023/06/08 01:24:19;;;;;;;6.10;5.50;;;24.70;54.10;25.30;100796.00;;;;5012951;28;20221;-60
2023/06/08 01:26:49;;;;;;;6.10;5.50;;;24.70;54.10;25.20;100812.00;;;;5012549;28;20237;-60
2023/06/08 01:29:15;;;;;;;5.78;5.28;;;24.70;54.10;25.20;100797.00;;;;5012675;28;20172;-61
2023/06/08 01:31:41;;;;;;;6.40;5.80;;;24.70;54.30;25.20;100748.00;;;;5012633;28;20274;-60
2023/06/08 01:34:08;;;;;;;6.03;5.53;;;24.70;54.30;25.20;100816.00;;;;5011507;28;20268;-60
2023/06/08 01:36:55;;;;;;;5.80;5.30;;;24.70;54.40;25.20;100808.00;;;;4994816;28;20534;-61
2023/06/08 01:39:48;;;;;;;5.95;5.45;;;24.60;54.30;25.20;100806.00;;;;5012506;28;20182;-60
2023/06/08 01:42:18;;;;;;;5.57;5.05;;;24.70;54.40;25.20;100811.00;;;;5012230;28;20267;-61
2023/06/08 01:45:03;;;;;;;6.00;5.50;;;24.60;54.30;25.20;100813.00;;;;4995301;28;20188;-60
2023/06/08 01:48:02;;;;;;;5.30;4.90;;;24.60;54.40;25.20;100803.00;;;;4983478;28;20646;-61
2023/06/08 01:50:28;;;;;;;5.97;5.50;;;24.60;54.30;25.10;100804.00;;;;4998690;28;20219;-60
2023/06/08 01:52:58;;;;;;;6.20;5.60;;;24.60;54.50;25.10;100802.00;;;;4994944;28;20187;-59
2023/06/08 01:55:24;;;;;;;5.93;5.43;;;24.60;54.50;25.10;100799.00;;;;5011833;28;20196;-58
2023/06/08 01:57:50;;;;;;;6.20;5.30;;;24.60;54.50;25.10;100806.00;;;;5012013;28;20169;-60
2023/06/08 02:00:18;;;;;;;5.80;5.30;;;24.60;54.40;25.10;100798.00;;;;5011965;28;20202;-60
2023/06/08 02:02:44;;;;;;;6.10;5.50;;;24.60;54.30;25.10;100798.00;;;;5011998;28;20164;-60
2023/06/08 02:05:11;;;;;;;6.28;5.75;;;24.60;54.50;25.10;100799.00;;;;5012220;28;20198;-60
2023/06/08 02:07:40;;;;;;;6.03;5.43;;;24.60;54.40;25.10;100790.00;;;;5011872;28;20221;-63
2023/06/08 02:10:07;;;;;;;5.85;5.35;;;24.50;54.20;25.10;100793.00;;;;5010832;28;20175;-51
2023/06/08 02:12:33;;;;;;;7.43;6.70;;;24.50;54.20;25.10;100795.00;;;;5012208;28;20673;-53
2023/06/08 02:14:59;;;;;;;6.90;6.20;;;24.60;54.60;25.10;100793.00;;;;5013891;28;20200;-53
2023/06/08 02:17:27;;;;;;;8.35;6.53;;;24.60;54.60;25.10;100791.00;;;;5024258;28;20179;-53
2023/06/08 02:19:56;;;;;;;6.60;6.00;;;24.50;54.50;25.10;100788.00;;;;5014907;28;20190;-51
2023/06/08 02:22:22;;;;;;;7.32;6.45;;;24.50;54.50;25.10;100778.00;;;;5012320;28;20186;-53
2023/06/08 02:24:48;;;;;;;7.63;6.55;;;24.50;54.40;25.10;100782.00;;;;5010995;28;20175;-53
2023/06/08 02:27:14;;;;;;;7.63;6.90;;;24.50;54.50;25.00;100783.00;;;;5012114;28;20168;-52
2023/06/08 02:29:40;;;;;;;8.52;7.18;;;24.50;54.60;25.00;100790.00;;;;5004689;28;20558;-50
2023/06/08 02:32:07;;;;;;;7.72;6.93;;;24.50;54.50;25.00;100794.00;;;;5022845;28;20200;-51
2023/06/08 02:34:35;;;;;;;7.30;6.60;;;24.50;54.50;25.00;100781.00;;;;5014068;28;20223;-52
2023/06/08 02:37:01;;;;;;;7.20;6.40;;;24.50;54.50;25.00;100785.00;;;;5012042;28;20178;-50
2023/06/08 02:39:27;;;;;;;7.40;6.55;;;24.50;54.50;25.00;100795.00;;;;5010142;28;20179;-50
2023/06/08 02:41:52;;;;;;;7.15;6.25;;;24.50;54.60;25.00;100791.00;;;;5011243;28;20704;-49
2023/06/08 02:44:18;;;;;;;8.60;7.00;;;24.40;54.40;24.90;100787.00;;;;5012028;28;20203;-52
2023/06/08 02:46:45;;;;;;;6.90;5.95;;;24.50;54.60;24.90;100785.00;;;;5011468;28;20302;-50
2023/06/08 02:49:10;;;;;;;8.07;7.28;;;24.40;54.60;24.90;100782.00;;;;5010928;28;20195;-51
2023/06/08 02:51:36;;;;;;;6.80;6.10;;;24.40;54.60;24.90;100786.00;;;;5011004;28;20199;-49
2023/06/08 02:54:02;;;;;;;7.30;6.60;;;24.40;54.50;24.90;100791.00;;;;5011149;28;20176;-49
2023/06/08 02:56:28;;;;;;;6.80;6.20;;;24.40;54.50;24.90;100795.00;;;;5010666;28;20693;-50
2023/06/08 02:58:54;;;;;;;7.03;6.40;;;24.40;54.50;24.90;100792.00;;;;5010811;28;20191;-52
2023/06/08 03:01:20;;;;;;;6.30;5.75;;;24.40;54.40;24.90;100797.00;;;;5011044;28;20543;-52
2023/06/08 03:03:46;;;;;;;6.75;6.05;;;24.40;54.40;24.90;100799.00;;;;5011061;28;20210;-51
2023/06/08 03:06:17;;;;;;;6.88;6.28;;;24.40;54.30;24.90;100776.00;;;;5009638;28;20195;-53
2023/06/08 03:08:46;;;;;;;6.47;5.87;;;24.40;54.40;24.90;100790.00;;;;5009950;28;20176;-50
2023/06/08 03:11:13;;;;;;;6.17;5.57;;;24.30;54.30;24.90;100780.00;;;;5010738;28;20334;-50
2023/06/08 03:13:39;;;;;;;6.90;6.30;;;24.40;54.40;24.80;100791.00;;;;5010558;28;20214;-51
2023/06/08 03:16:05;;;;;;;7.20;6.60;;;24.30;54.20;24.90;100783.00;;;;5010325;28;20785;-51
2023/06/08 03:18:32;;;;;;;6.35;5.78;;;24.40;54.40;24.80;100784.00;;;;5010300;28;20178;-49
2023/06/08 03:20:58;;;;;;;7.03;6.43;;;24.30;54.20;24.80;100785.00;;;;5010319;28;20187;-50
2023/06/08 03:23:24;;;;;;;6.53;5.78;;;24.30;54.20;24.80;100783.00;;;;5010861;28;20176;-50
2023/06/08 03:25:50;;;;;;;6.18;5.68;;;24.30;54.30;24.80;100785.00;;;;5010719;28;20226;-50
2023/06/08 03:28:18;;;;;;;7.18;5.43;;;24.30;54.30;24.80;100786.00;;;;5010463;28;20179;-48
2023/06/08 03:30:44;;;;;;;6.57;5.97;;;24.30;54.30;24.80;100789.00;;;;5010605;28;20200;-52
2023/06/08 03:33:11;;;;;;;6.33;5.73;;;24.20;54.40;24.80;100782.00;;;;5010112;28;20311;-52
2023/06/08 03:35:38;;;;;;;8.73;6.00;;;24.20;54.40;24.70;100791.00;;;;5009917;28;20215;-49
2023/06/08 03:38:03;;;;;;;6.37;5.87;;;24.20;54.30;24.70;100792.00;;;;5009344;28;20714;-48
2023/06/08 03:40:29;;;;;;;7.97;7.27;;;24.20;54.30;24.70;100783.00;;;;5010207;28;20227;-49
2023/06/08 03:42:55;;;;;;;7.73;7.03;;;24.20;54.30;24.70;100783.00;;;;5010282;28;20255;-51
2023/06/08 03:45:21;;;;;;;7.22;6.53;;;24.20;54.30;24.70;100783.00;;;;5009801;28;20190;-51
2023/06/08 03:47:47;;;;;;;6.93;6.33;;;24.20;54.20;24.70;100779.00;;;;5010033;28;20182;-52
2023/06/08 03:50:12;;;;;;;6.77;6.03;;;24.20;54.30;24.70;100783.00;;;;5010142;28;20559;-52
2023/06/08 03:52:38;;;;;;;6.77;6.27;;;24.20;54.20;24.70;100769.00;;;;5010240;28;20179;-49
2023/06/08 03:55:11;;;;;;;6.50;6.00;;;24.10;54.10;24.70;100776.00;;;;5010120;28;20203;-50
2023/06/08 03:57:37;;;;;;;6.80;6.20;;;24.20;54.20;24.70;100780.00;;;;5009078;28;20222;-52
2023/06/08 04:00:07;;;;;;;6.67;6.07;;;24.10;54.10;24.60;100777.00;;;;5010356;28;20172;-53
2023/06/08 04:02:32;;;;;;;6.60;6.05;;;24.20;54.20;24.60;100772.00;;;;5010368;28;20171;-50
2023/06/08 04:04:59;;;;;;;6.40;5.90;;;24.10;54.00;24.60;100768.00;;;;5010102;28;20171;-51
2023/06/08 04:07:26;;;;;;;6.38;5.88;;;24.20;54.10;24.60;100780.00;;;;5009735;28;20184;-51
2023/06/08 04:09:52;;;;;;;6.40;5.80;;;24.10;54.20;24.60;100776.00;;;;5009890;28;20187;-50
2023/06/08 04:12:17;;;;;;;6.60;6.00;;;24.10;54.20;24.60;100777.00;;;;5009786;28;20199;-51
2023/06/08 04:14:43;;;;;;;6.63;6.03;;;24.10;54.10;24.60;100787.00;;;;5000962;28;20670;-51
2023/06/08 04:17:09;;;;;;;6.27;5.77;;;24.00;54.60;24.50;100784.00;;;;5013525;28;20175;-51
2023/06/08 04:19:35;;;;;;;6.20;5.70;;;24.00;54.40;24.50;100785.00;;;;5018440;28;20175;-52
2023/06/08 04:22:00;;;;;;;5.97;5.43;;;24.00;54.30;24.50;100782.00;;;;5009776;28;20187;-51
2023/06/08 04:24:28;;;;;;;6.03;5.50;;;24.10;54.50;24.50;100782.00;;;;5009037;28;20742;-50
2023/06/08 04:26:55;;;;;;;5.60;5.20;;;24.10;54.50;24.50;100782.00;;;;5009576;28;20192;-51
2023/06/08 04:29:21;;;;;;;6.10;5.60;;;24.10;54.50;24.50;100778.00;;;;5009432;28;20855;-48
2023/06/08 04:31:47;;;;;;;6.77;6.17;;;24.00;54.90;24.50;100785.00;;;;5011260;28;20195;-48
2023/06/08 04:34:12;;;;;;;6.30;5.70;;;24.00;54.70;24.50;100782.00;;;;5014339;28;20176;-49
2023/06/08 04:36:42;;;;;;;6.05;5.28;;;24.00;54.70;24.40;100786.00;;;;5009622;28;20203;-49
2023/06/08 04:39:08;;;;;;;7.78;6.68;;;24.00;54.70;24.40;100777.00;;;;5007995;28;20191;-51
2023/06/08 04:41:34;;;;;;;8.53;7.80;;;24.00;54.70;24.40;100788.00;;;;5013872;28;20196;-49
2023/06/08 04:44:01;;;;;;;6.43;5.83;;;24.00;54.70;24.40;100782.00;;;;5007253;28;20160;-50
2023/06/08 04:46:33;;;;;;;6.33;5.83;;;23.90;54.60;24.40;100797.00;;;;5008571;28;20184;-50
2023/06/08 04:48:59;;;;;;;6.50;5.90;;;23.90;54.60;24.40;100792.00;;;;5011603;28;20170;-49
2023/06/08 04:51:29;;;;;;;6.03;5.53;;;23.90;54.70;24.30;100794.00;;;;5012900;28;20601;-51
2023/06/08 04:53:56;;;;;;;5.57;5.17;;;23.90;54.90;24.30;100792.00;;;;5012951;28;20350;-51
2023/06/08 04:56:23;;;;;;;6.53;5.93;;;23.90;54.90;24.30;100785.00;;;;5012556;28;20262;-50
2023/06/08 04:58:50;;;;;;;6.40;5.80;;;23.80;54.90;24.30;100791.00;;;;5012538;28;20654;-51
2023/06/08 05:01:16;;;;;;;6.53;5.93;;;23.80;54.90;24.30;100787.00;;;;5013550;28;20412;-52
2023/06/08 05:03:42;;;;;;;5.90;5.40;;;23.80;55.00;24.30;100788.00;;;;5013038;28;20432;-49
2023/06/08 05:06:08;;;;;;;6.23;5.63;;;23.80;54.90;24.30;100795.00;;;;5011133;28;20201;-49
2023/06/08 05:08:34;;;;;;;6.17;5.57;;;23.80;55.00;24.30;100796.00;;;;5012526;28;21562;-49
2023/06/08 05:11:00;;;;;;;6.03;5.53;;;23.80;54.90;24.20;100797.00;;;;5012874;28;20195;-50
2023/06/08 05:13:25;;;;;;;6.80;6.13;;;23.80;55.00;24.20;100791.00;;;;5011979;28;20190;-51
2023/06/08 05:15:51;;;;;;;6.13;5.53;;;23.80;55.00;24.20;100795.00;;;;5012077;28;20207;-49
2023/06/08 05:18:17;;;;;;;6.60;5.93;;;23.80;55.10;24.20;100788.00;;;;5012401;28;20566;-50
2023/06/08 05:20:43;;;;;;;5.80;5.30;;;23.80;55.10;24.20;100794.00;;;;5012481;28;20211;-51
2023/06/08 05:23:08;;;;;;;5.80;5.30;;;23.70;55.10;24.20;100793.00;;;;5012188;28;20179;-50
2023/06/08 05:25:36;;;;;;;5.60;5.10;;;23.60;55.00;24.20;100795.00;;;;5011712;28;20183;-49
2023/06/08 05:28:03;;;;;;;5.70;5.20;;;23.70;55.20;24.20;100791.00;;;;5011824;28;20196;-49
2023/06/08 05:30:30;;;;;;;6.00;5.50;;;23.60;55.20;24.20;100786.00;;;;5012307;28;20204;-50
2023/06/08 05:32:56;;;;;;;5.80;5.30;;;23.60;55.30;24.20;100786.00;;;;5012403;28;20171;-52
2023/06/08 05:35:22;;;;;;;6.00;5.50;;;23.60;55.30;24.20;100779.00;;;;5012057;28;20199;-50
2023/06/08 05:37:47;;;;;;;5.83;5.30;;;23.60;55.40;24.20;100789.00;;;;5012111;28;20675;-49
2023/06/08 05:40:14;;;;;;;5.93;5.47;;;23.60;55.50;24.20;100781.00;;;;5012424;28;20202;-49
2023/06/08 05:42:39;;;;;;;6.20;5.70;;;23.60;55.50;24.20;100784.00;;;;5003993;28;20207;-49
2023/06/08 05:45:06;;;;;;;5.90;5.40;;;23.60;55.40;24.20;100779.00;;;;5011367;28;20209;-48
2023/06/08 05:47:32;;;;;;;5.90;5.40;;;23.60;55.50;24.30;100784.00;;;;5011964;28;20281;-50
2023/06/08 05:49:57;;;;;;;5.50;5.10;;;23.60;55.60;24.30;100783.00;;;;5011762;28;20211;-48
2023/06/08 05:52:23;;;;;;;5.83;5.40;;;23.60;55.60;24.30;100782.00;;;;5011209;28;20736;-49
2023/06/08 05:54:50;;;;;;;5.50;5.00;;;23.60;55.40;24.20;100785.00;;;;5018178;28;20230;-49
2023/06/08 05:57:16;;;;;;;6.33;5.73;;;23.60;55.40;24.20;100780.00;;;;5011592;28;20207;-48
2023/06/08 05:59:41;;;;;;;5.87;5.40;;;23.60;55.30;24.20;100788.00;;;;5011812;28;20809;-49
2023/06/08 06:02:07;;;;;;;5.80;5.30;;;23.60;55.30;24.20;100786.00;;;;5012027;28;20229;-50
2023/06/08 06:04:35;;;;;;;5.70;5.20;;;23.60;55.30;24.20;100782.00;;;;5010759;28;20222;-49
2023/06/08 06:07:01;;;;;;;5.50;5.10;;;23.60;55.40;24.20;100785.00;;;;5010412;28;20183;-50
2023/06/08 06:09:27;;;;;;;5.67;5.17;;;23.60;55.50;24.20;100776.00;;;;5011922;28;20172;-49
2023/06/08 06:11:53;;;;;;;5.45;4.95;;;23.60;55.50;24.20;100781.00;;;;5010015;28;20195;-51
2023/06/08 06:14:18;;;;;;;5.30;4.90;;;23.60;55.30;24.20;100785.00;;;;5009433;28;20529;-49
2023/06/08 06:16:44;;;;;;;5.37;4.87;;;23.60;55.50;24.20;100782.00;;;;5010755;28;20404;-50
2023/06/08 06:19:10;;;;;;;5.30;4.87;;;23.60;55.60;24.20;100779.00;;;;5012507;28;20179;-49
2023/06/08 06:21:36;;;;;;;5.17;4.70;;;23.60;55.40;24.20;100774.00;;;;5023905;28;20192;-51
2023/06/08 06:24:02;;;;;;;4.80;4.40;;;23.60;55.60;24.20;100784.00;;;;5014677;28;20204;-52
2023/06/08 06:26:28;;;;;;;5.60;5.10;;;23.50;55.40;24.10;100787.00;;;;5011785;28;20183;-50
2023/06/08 06:28:54;;;;;;;5.67;5.17;;;23.50;55.90;24.10;100782.00;;;;5011445;28;20191;-51
2023/06/08 06:31:20;;;;;;;5.27;4.80;;;23.50;55.90;24.10;100785.00;;;;5011915;28;20203;-49
2023/06/08 06:33:46;;;;;;;4.83;4.43;;;23.50;55.80;24.10;100788.00;;;;5014139;28;20731;-51
2023/06/08 06:36:11;;;;;;;5.13;4.73;;;23.50;55.60;24.20;100792.00;;;;5021123;28;20211;-50
2023/06/08 06:38:37;;;;;;;5.23;4.73;;;23.50;55.50;24.10;100785.00;;;;5012885;28;20172;-52
2023/06/08 06:41:03;;;;;;;5.33;4.83;;;23.50;55.90;24.20;100786.00;;;;5011649;28;20195;-51
2023/06/08 06:43:29;;;;;;;5.20;4.70;;;23.60;56.30;24.20;100787.00;;;;5010889;28;20179;-50
2023/06/08 06:45:54;;;;;;;4.50;4.10;;;23.60;56.30;24.20;100787.00;;;;5010460;28;20176;-50
2023/06/08 06:48:20;;;;;;;4.73;4.33;;;23.60;55.90;24.20;100797.00;;;;5010850;28;20662;-50
2023/06/08 06:50:47;;;;;;;5.97;5.03;;;23.60;55.70;24.20;100796.00;;;;5010091;28;20306;-51
2023/06/08 06:53:13;;;;;;;5.27;4.80;;;23.60;56.80;24.20;100792.00;;;;5009077;28;20171;-54
2023/06/08 06:55:42;;;;;;;4.87;4.47;;;23.60;56.50;24.20;100793.00;;;;5009357;28;20273;-53
2023/06/08 06:58:08;;;;;;;5.33;4.83;;;23.60;56.10;24.20;100794.00;;;;5009594;28;20628;-53
2023/06/08 07:00:37;;;;;;;5.23;4.73;;;23.60;55.90;24.20;100782.00;;;;5009667;28;20287;-51
2023/06/08 07:03:06;;;;;;;6.77;5.00;;;23.60;56.00;24.20;100792.00;;;;5009810;28;20164;-51
2023/06/08 07:05:36;;;;;;;4.80;4.30;;;23.60;55.90;24.20;100789.00;;;;5009217;28;20186;-52
2023/06/08 07:08:02;;;;;;;4.93;4.53;;;23.60;56.00;24.20;100784.00;;;;5010289;28;20172;-53
2023/06/08 07:10:29;;;;;;;4.77;4.37;;;23.60;56.00;24.20;100790.00;;;;4975605;28;20235;-51
2023/06/08 07:12:56;;;;;;;4.80;4.40;;;23.60;55.80;24.20;100781.00;;;;5009322;28;20179;-50
2023/06/08 07:15:22;;;;;;;4.80;4.40;;;23.60;55.90;24.30;100779.00;;;;5008350;28;20734;-53
2023/06/08 07:17:48;;;;;;;5.10;4.60;;;23.60;56.00;24.30;100782.00;;;;5007978;28;20167;-52
2023/06/08 07:20:13;;;;;;;4.97;4.47;;;23.60;56.00;24.30;100778.00;;;;5009433;28;20198;-53
2023/06/08 07:22:40;;;;;;;5.10;4.70;;;23.70;56.20;24.30;100779.00;;;;5009399;28;20255;-51
2023/06/08 07:25:06;;;;;;;5.30;4.90;;;23.60;56.00;24.30;100777.00;;;;5009834;28;20534;-53
2023/06/08 07:27:32;;;;;;;5.00;4.60;;;23.60;56.40;24.30;100770.00;;;;5012068;28;20655;-51
2023/06/08 07:29:58;;;;;;;4.80;4.40;;;23.60;56.50;24.30;100775.00;;;;5010663;28;20172;-53
2023/06/08 07:32:24;;;;;;;5.00;4.43;;;23.60;56.20;24.30;100771.00;;;;5012406;28;20176;-53
2023/06/08 07:34:50;;;;;;;5.07;4.57;;;23.60;56.40;24.30;100771.00;;;;5009540;28;20211;-51
2023/06/08 07:37:16;;;;;;;4.97;4.57;;;23.60;56.40;24.30;100775.00;;;;5009755;28;20175;-53
2023/06/08 07:39:41;;;;;;;5.30;4.90;;;23.60;56.30;24.30;100775.00;;;;5008219;28;20254;-52
2023/06/08 07:42:07;;;;;;;4.73;4.40;;;23.60;57.20;24.30;100789.00;;;;5008951;28;20274;-50
2023/06/08 07:44:33;;;;;;;4.60;4.20;;;23.60;56.70;24.30;100797.00;;;;5008134;28;20526;-51
2023/06/08 07:47:00;;;;;;;4.80;4.50;;;23.60;56.70;24.30;100782.00;;;;5009202;28;20168;-49
2023/06/08 07:49:28;;;;;;;4.83;4.40;;;23.60;56.40;24.30;100774.00;;;;4970870;28;1107522;-52
2023/06/08 07:51:54;;;;;;;4.83;4.53;;;23.60;56.70;24.30;100776.00;;;;5008559;28;20207;-51
2023/06/08 07:54:19;;;;;;;4.93;4.53;;;23.60;56.90;24.30;100779.00;;;;5008602;28;20176;-51
2023/06/08 07:56:49;;;;;;;5.00;4.60;;;23.60;56.80;24.40;100795.00;;;;5007760;28;20195;-51
2023/06/08 07:59:15;;;;;;;5.00;4.60;;;23.70;57.00;24.40;100776.00;;;;5008602;28;20638;-52
2023/06/08 08:01:42;;;;;;;4.90;4.50;;;23.60;57.00;24.40;100777.00;;;;5009439;28;20278;-52
2023/06/08 08:04:08;;;;;;;5.43;5.00;;;23.70;57.10;24.30;100775.00;;;;5008978;28;20172;-51
2023/06/08 08:06:34;;;;;;;5.20;4.80;;;23.60;56.70;24.30;100777.00;;;;5009150;28;20531;-51
2023/06/08 08:09:00;;;;;;;5.03;4.63;;;23.60;56.70;24.30;100780.00;;;;5008312;28;20182;-50
2023/06/08 08:11:26;;;;;;;5.83;4.43;;;23.60;56.90;24.40;100781.00;;;;5008860;28;20208;-52
2023/06/08 08:13:52;;;;;;;5.10;4.63;;;23.60;57.00;24.40;100772.00;;;;5008966;28;20175;-50
2023/06/08 08:16:18;;;;;;;5.20;4.70;;;23.60;57.00;24.40;100769.00;;;;5008877;28;20230;-53
2023/06/08 08:18:44;;;;;;;5.40;5.00;;;23.70;57.30;24.40;100768.00;;;;5009177;28;20199;-51
2023/06/08 08:21:10;;;;;;;5.70;5.10;;;23.70;57.20;24.40;100772.00;;;;5009165;28;20222;-52
2023/06/08 08:23:37;;;;;;;5.07;4.67;;;23.70;57.20;24.40;100768.00;;;;5005954;28;20698;-51
2023/06/08 08:26:02;;;;;;;5.23;4.73;;;23.70;57.20;24.40;100765.00;;;;5007193;28;20270;-54
2023/06/08 08:28:28;;;;;;;5.40;5.00;;;23.70;57.20;24.40;100760.00;;;;5010076;28;20414;-51
2023/06/08 08:30:54;;;;;;;5.23;4.83;;;23.70;56.90;24.40;100767.00;;;;5008331;28;20697;-55
2023/06/08 08:33:20;;;;;;;5.60;5.10;;;23.70;57.00;24.40;100757.00;;;;5007959;28;20207;-60
2023/06/08 08:35:46;;;;;;;5.33;4.80;;;23.70;57.40;24.40;100763.00;;;;5004373;28;20668;-59
2023/06/08 08:38:11;;;;;;;5.30;4.80;;;23.70;57.60;24.40;100764.00;;;;5004919;28;20184;-60
2023/06/08 08:40:37;;;;;;;6.90;4.90;;;23.70;57.80;24.40;100755.00;;;;5014044;28;20199;-61
2023/06/08 08:43:19;;;;;;;5.67;4.80;;;23.70;57.60;24.50;100720.00;;;;5009168;28;20179;-60
2023/06/08 08:45:45;;;;;;;5.47;4.67;;;23.70;57.70;24.50;100736.00;;;;5000131;28;20180;-62
2023/06/08 08:48:13;;;;;;;6.90;4.73;;;23.80;58.40;24.50;100746.00;;;;4991284;28;20192;-60
2023/06/08 08:50:39;;;;;;;6.27;4.90;;;23.80;58.50;24.50;100751.00;;;;4989839;28;20218;-62
2023/06/08 08:53:06;;;;;;;5.90;5.37;;;23.80;59.50;24.50;100736.00;;;;4992887;28;20227;-60
2023/06/08 08:55:33;;;;;;;5.67;4.90;;;23.80;59.30;24.60;100754.00;;;;4973277;28;20230;-60
2023/06/08 08:58:03;;;;;;;6.65;4.93;;;23.80;59.00;24.60;100750.00;;;;5006937;28;20179;-61
2023/06/08 09:00:31;;;;;;;5.60;5.00;;;23.80;59.00;24.60;100748.00;;;;4990953;28;20192;-62
2023/06/08 09:02:56;;;;;;;6.40;5.00;;;23.90;58.90;24.60;100743.00;;;;5007882;28;20333;-63
2023/06/08 09:05:22;;;;;;;5.83;4.97;;;23.90;58.90;24.60;100745.00;;;;4990294;28;20688;-62
2023/06/08 09:07:48;;;;;;;7.07;5.05;;;23.80;58.80;24.60;100740.00;;;;5004035;28;20582;-62
2023/06/08 09:10:22;;;;;;;7.47;5.43;;;23.90;59.10;24.60;100722.00;;;;5006788;28;20207;-60
2023/06/08 09:12:53;;;;;;;6.00;4.80;;;23.90;59.20;24.70;100739.00;;;;4979350;28;20290;-61
2023/06/08 09:15:37;;;;;;;5.77;5.00;;;23.90;59.30;24.70;100734.00;;;;5007363;28;20207;-62
2023/06/08 09:18:20;;;;;;;8.67;4.80;;;24.00;59.40;24.70;100735.00;;;;5007649;28;20175;-63
2023/06/08 09:20:46;;;;;;;11.00;5.03;;;24.00;59.40;24.70;100730.00;;;;5007568;28;20238;-64
2023/06/08 09:23:26;;;;;;;7.87;5.20;;;24.00;60.20;24.70;100720.00;;;;4991144;28;20843;-61
2023/06/08 09:25:52;;;;;;;6.22;5.07;;;24.00;60.70;24.70;100729.00;;;;4991567;28;20198;-62
2023/06/08 09:28:28;;;;;;;7.18;5.07;;;24.00;60.00;24.70;100737.00;;;;5007124;28;20206;-62
2023/06/08 09:30:56;;;;;;;6.82;5.15;;;24.00;59.90;24.80;100734.00;;;;5008023;28;20202;-61
2023/06/08 09:33:25;;;;;;;6.40;4.80;;;24.00;59.80;24.80;100705.00;;;;4975549;28;20182;-62
2023/06/08 09:36:15;;;;;;;6.10;4.87;;;24.00;59.70;24.80;100736.00;;;;4994241;28;20195;-62
2023/06/08 09:38:41;;;;;;;5.03;4.55;;;24.00;59.70;24.80;100737.00;;;;5010556;28;20183;-62
2023/06/08 09:41:21;;;;;;;5.80;4.60;;;24.10;59.80;24.80;100730.00;;;;4977608;28;20286;-62
2023/06/08 09:43:50;;;;;;;5.47;4.85;;;24.00;59.60;24.80;100725.00;;;;4974194;28;20184;-58
2023/06/08 09:46:39;;;;;;;5.60;5.00;;;24.10;59.90;24.90;100728.00;;;;5010415;28;20690;-59
2023/06/08 09:49:08;;;;;;;5.15;4.75;;;24.10;59.80;24.90;100726.00;;;;5009451;28;20791;-58
2023/06/08 09:51:37;;;;;;;5.32;4.70;;;24.10;59.70;24.90;100724.00;;;;5012376;28;20207;-57
2023/06/08 09:54:04;;;;;;;5.03;4.40;;;24.10;59.60;24.90;100724.00;;;;5012529;28;20179;-58
2023/06/08 09:56:30;;;;;;;5.18;4.65;;;24.10;59.50;24.90;100730.00;;;;5010460;28;20253;-59
2023/06/08 09:58:57;;;;;;;6.22;5.13;;;24.20;59.50;25.00;100729.00;;;;5010436;28;20180;-59
2023/06/08 10:01:42;;;;;;;5.82;4.63;;;24.20;59.40;25.00;100715.00;;;;4996174;28;20199;-59
2023/06/08 10:04:35;;;;;;;5.10;4.60;;;24.30;59.40;25.00;100710.00;;;;5005073;28;20164;-58
2023/06/08 10:07:09;;;;;;;4.93;4.50;;;24.30;59.50;25.00;100715.00;;;;5010116;28;20176;-58
2023/06/08 10:09:37;;;;;;;5.25;4.68;;;24.30;59.50;25.00;100718.00;;;;4978109;28;20187;-58
2023/06/08 10:12:03;;;;;;;5.45;4.70;;;24.30;59.50;25.00;100716.00;;;;5008460;28;20199;-58
2023/06/08 10:14:29;;;;;;;7.70;4.63;;;24.40;59.60;25.10;100712.00;;;;4991978;28;20275;-60
2023/06/08 10:16:58;;;;;;;5.13;4.70;;;24.40;59.60;25.10;100704.00;;;;5009984;28;20262;-57
2023/06/08 10:19:24;;;;;;;4.70;4.30;;;24.40;59.60;25.10;100711.00;;;;4992967;28;20208;-59
2023/06/08 10:21:53;;;;;;;5.18;4.70;;;24.40;59.60;25.10;100709.00;;;;5010803;28;20705;-59
2023/06/08 10:24:21;;;;;;;4.88;4.43;;;24.40;59.60;25.20;100706.00;;;;4992309;28;20213;-57
2023/06/08 10:26:48;;;;;;;4.97;4.35;;;24.50;59.40;25.20;100709.00;;;;4992953;28;20168;-57
2023/06/08 10:29:14;;;;;;;6.15;4.80;;;24.50;59.90;25.20;100703.00;;;;5009686;28;20229;-57
2023/06/08 10:31:41;;;;;;;4.97;4.57;;;24.50;59.20;25.20;100686.00;;;;5012387;28;20195;-58
2023/06/08 10:34:17;;;;;;;5.80;4.60;;;24.60;59.40;25.30;100699.00;;;;5022064;28;20184;-56
2023/06/08 10:36:43;;;;;;;4.63;4.22;;;24.60;59.30;25.30;100694.00;;;;5019600;28;20195;-58
2023/06/08 10:39:12;;;;;;;5.32;4.60;;;24.60;59.50;25.30;100704.00;;;;5012295;28;20206;-59
2023/06/08 10:52:46;;;;;;;5.38;4.88;;;24.70;59.30;25.40;100696.00;;;;5012429;28;20202;-58
2023/06/08 10:55:13;;;;;;;4.57;4.20;;;24.70;59.20;25.50;100691.00;;;;5008302;28;20208;-58
2023/06/08 10:57:46;;;;;;;4.90;4.50;;;24.70;59.20;25.50;100690.00;;;;5007469;28;20172;-57
2023/06/08 11:00:28;;;;;;;4.88;4.40;;;24.80;59.20;25.60;100679.00;;;;5011836;28;20259;-58
2023/06/08 11:02:56;;;;;;;5.15;4.75;;;24.80;59.10;25.60;100664.00;;;;5010296;28;20666;-57